Latest Weather Observations for Ballina

IDN60801

Issued at 10:02 pm EDT Monday 10 December 2018 (issued every 10 minutes, with the page automatically refreshed every 10 minutes)

About weather observations | Map of weather stations | Latest weather observations for NSW | Other Formats
Station Details ID: 058198 Name: BALLINA AIRPORT AWS Lat: -28.84 Lon: 153.56 Height: 1.3 m
Data from the previous 72 hours. | See also: Recent months at Ballina
Date/Time
EDT
Temp
°C
App
Temp
°C
Dew
Point
°C
Rel
Hum
%
Delta-T
°C
Wind Press
QNH
hPa
Press
MSL
hPa
Rain since
9am
mm
Dir  Spd
km/h
Gust
km/h
Spd
kts
Gust
kts
10/10:00pm 21.3 22.6 19.2 88 1.3 NNE 11 15 6 8 1016.2 1016.2 -
10/09:30pm 21.8 23.5 20.1 90 1.1 NNE 11 17 6 9 1016.1 1016.1 -
10/09:00pm 22.1 23.2 20.4 90 1.1 NNE 15 19 8 10 1015.7 1015.7 -
10/08:30pm 22.1 23.4 20.2 89 1.2 NNE 13 17 7 9 1015.7 1015.7 -
10/08:00pm 22.7 24.3 21.4 92 0.9 NNE 15 20 8 11 1015.1 1015.1 -
10/07:30pm 23.0 23.4 19.8 82 2.1 NNE 17 24 9 13 1014.8 1014.8 -
10/07:00pm 23.6 24.8 21.5 88 1.4 NNE 17 24 9 13 1014.5 1014.5 -
10/06:30pm 24.5 23.9 20.6 79 2.5 NNE 24 33 13 18 1014.1 1014.1 -
10/06:00pm 25.2 24.7 20.7 76 2.9 NNE 24 33 13 18 1013.9 1013.9 -
10/05:30pm 24.9 24.7 21.2 80 2.4 NNE 24 35 13 19 1013.8 1013.8 -
10/05:00pm 25.3 24.7 21.2 78 2.7 NNE 26 35 14 19 1013.6 1013.6 0.0
10/04:30pm 24.9 24.3 22.0 84 1.9 NE 28 35 15 19 1013.7 1013.7 0.0
10/04:00pm 25.9 25.7 22.0 79 2.6 NE 26 35 14 19 1014.0 1014.0 0.0
10/03:30pm 27.0 27.1 23.3 80 2.5 NE 28 37 15 20 1014.2 1014.2 0.0
10/03:00pm 26.0 24.2 20.3 71 3.7 NE 30 39 16 21 1014.4 1014.4 0.0
10/02:30pm 26.4 25.4 20.5 70 3.9 NE 26 33 14 18 1014.7 1014.7 0.0
10/02:00pm 26.5 24.8 19.9 67 4.3 NE 28 33 15 18 1015.0 1015.0 0.0
10/01:30pm 27.2 26.1 21.0 69 4.1 ENE 28 35 15 19 1015.3 1015.3 0.0
10/01:00pm 26.7 25.5 19.3 64 4.8 ENE 24 33 13 18 1015.4 1015.4 0.0
10/12:30pm 26.4 25.3 19.5 66 4.5 ENE 24 30 13 16 1015.6 1015.6 0.0
10/12:00pm 26.3 24.9 19.7 67 4.3 ENE 26 33 14 18 1015.5 1015.5 0.0
10/11:30am 26.6 26.7 20.0 67 4.3 NE 19 26 10 14 1016.0 1016.0 0.0
10/11:00am 26.1 25.4 19.5 67 4.3 NE 22 30 12 16 1016.1 1016.1 0.0
10/10:30am 26.0 28.2 23.9 88 1.4 ENE 19 26 10 14 1016.4 1016.4 0.0
10/10:00am 24.8 27.3 21.1 80 2.4 E 9 13 5 7 1016.6 1016.6 0.0
10/09:30am 24.3 27.6 20.0 77 2.8 NE 2 6 1 3 1016.8 1016.8 0.0
10/09:00am 23.4 26.1 19.5 79 2.5 WSW 4 7 2 4 1016.9 1016.9 0.0
10/08:30am 22.8 25.3 19.8 83 1.9 WSW 6 7 3 4 1016.8 1016.8 0.0
10/08:00am 21.8 24.2 19.7 88 1.3 WSW 6 7 3 4 1016.7 1016.7 0.0
10/07:30am 20.3 22.2 19.0 92 0.8 W 7 9 4 5 1016.6 1016.6 0.0
10/07:00am 18.8 21.8 18.5 98 0.2 CALM 0 0 0 0 1016.2 1016.2 0.0
10/06:30am 17.6 20.1 17.3 98 0.2 CALM 0 0 0 0 1016.0 1016.0 0.0
10/06:16am 16.9 19.1 16.6 98 0.2 CALM 0 0 0 0 1015.9 1015.9 0.0
10/06:00am 16.7 18.9 16.4 98 0.2 CALM 0 0 0 0 1015.9 1015.9 0.0
10/05:30am 16.7 18.5 16.4 98 0.2 W 2 7 1 4 1015.9 1015.9 0.0
10/05:27am 17.2 18.8 16.9 98 0.2 W 4 7 2 4 1015.8 1015.8 0.0
10/05:00am 17.4 18.6 16.9 97 0.3 W 6 7 3 4 1015.6 1015.6 0.0
10/04:30am 17.5 18.1 16.7 95 0.5 W 9 9 5 5 1015.5 1015.5 0.0
10/04:00am 18.4 21.0 17.4 94 0.6 CALM 0 6 0 3 1015.5 1015.5 0.0
10/03:30am 19.1 20.3 18.3 95 0.5 N 9 11 5 6 1015.4 1015.4 0.0
10/03:00am 18.9 20.5 18.2 96 0.4 NNW 7 11 4 6 1015.6 1015.6 0.0
10/02:30am 18.1 20.5 17.1 94 0.6 CALM 0 0 0 0 1016.3 1016.3 0.0
10/02:00am 18.5 20.4 17.7 95 0.5 WSW 4 9 2 5 1016.9 1016.9 0.0
10/01:30am 18.1 20.4 16.8 92 0.8 CALM 0 0 0 0 1017.3 1017.3 0.0
10/01:00am 18.6 19.9 17.1 91 0.9 WSW 6 9 3 5 1017.9 1017.9 0.0
10/12:30am 19.7 22.1 16.9 84 1.7 CALM 0 9 0 5 1018.3 1018.3 0.0
10/12:00am 21.3 22.9 18.3 83 1.9 N 7 9 4 5 1018.1 1018.1 0.0
 
Date/Time
EDT
Temp
°C
App
Temp
°C
Dew
Point
°C
Rel
Hum
%
Delta-T
°C
Wind Press
QNH
hPa
Press
MSL
hPa
Rain since
9am
mm
Dir  Spd
km/h
Gust
km/h
Spd
kts
Gust
kts
09/11:30pm 21.8 23.4 18.2 80 2.2 NNE 7 13 4 7 1018.1 1018.1 0.0
09/11:00pm 21.8 22.1 18.0 79 2.4 NE 13 17 7 9 1018.0 1018.0 0.0
09/10:30pm 21.8 22.2 18.2 80 2.2 NE 13 19 7 10 1018.0 1018.0 0.0
09/10:00pm 22.2 22.3 18.4 79 2.4 NE 15 20 8 11 1017.8 1017.8 0.0
09/09:30pm 22.1 21.8 18.3 79 2.4 NE 17 24 9 13 1017.5 1017.5 0.0
09/09:00pm 21.9 21.5 18.1 79 2.4 NE 17 26 9 14 1017.5 1017.5 0.0
09/08:30pm 21.7 21.3 18.1 80 2.2 NE 17 24 9 13 1017.4 1017.4 0.0
09/08:00pm 21.8 21.5 18.2 80 2.2 NE 17 20 9 11 1017.4 1017.4 0.0
09/07:30pm 22.3 22.1 18.5 79 2.4 NE 17 24 9 13 1017.4 1017.4 0.0
09/07:00pm 22.8 22.0 18.1 75 2.9 ENE 19 24 10 13 1017.4 1017.4 0.0
09/06:30pm 23.2 22.0 18.5 75 3.0 ENE 22 30 12 16 1017.3 1017.3 0.0
09/06:00pm 24.3 23.0 18.2 68 3.8 ENE 22 28 12 15 1017.1 1017.1 0.0
09/05:30pm 24.8 23.8 18.0 66 4.3 ENE 20 28 11 15 1017.0 1017.0 0.0
09/05:00pm 24.2 22.9 17.2 65 4.3 NE 20 28 11 15 1017.1 1017.1 0.0
09/04:30pm 24.4 23.2 17.6 66 4.2 ENE 20 26 11 14 1017.3 1017.3 0.0
09/04:00pm 25.5 24.0 17.7 62 4.9 E 22 32 12 17 1017.5 1017.5 0.0
09/03:30pm 25.6 24.6 18.8 66 4.3 ENE 22 32 12 17 1017.5 1017.5 0.0
09/03:00pm 24.9 23.0 17.6 64 4.6 ENE 24 32 13 17 1017.8 1017.8 0.0
09/02:30pm 25.5 24.3 18.4 65 4.5 ENE 22 32 12 17 1017.9 1017.9 0.0
09/02:00pm 25.5 24.3 18.4 65 4.5 ENE 22 37 12 20 1018.1 1018.1 0.0
09/01:30pm 25.6 24.1 18.5 65 4.5 NE 24 33 13 18 1018.4 1018.4 0.0
09/01:00pm 25.2 23.9 18.2 65 4.4 ENE 22 30 12 16 1018.5 1018.5 0.0
09/12:30pm 25.2 24.1 17.4 62 4.9 ENE 19 30 10 16 1018.9 1018.9 0.0
09/12:00pm 25.3 23.6 18.0 64 4.6 ENE 24 32 13 17 1019.1 1019.1 0.0
09/11:30am 25.4 23.9 17.8 62 4.8 ENE 22 28 12 15 1019.2 1019.2 0.0
09/11:00am 25.9 24.9 18.8 65 4.5 ENE 22 33 12 18 1019.3 1019.3 0.0
09/10:30am 25.2 24.6 18.4 66 4.3 ENE 19 26 10 14 1019.3 1019.3 0.0
09/10:00am 25.5 24.8 19.4 69 3.9 ENE 22 28 12 15 1019.4 1019.4 0.0
09/09:30am 24.9 24.4 18.6 68 4.0 ENE 19 24 10 13 1019.5 1019.5 0.0
09/09:00am 25.0 24.3 18.7 68 4.0 ENE 20 30 11 16 1019.5 1019.5 0.0
09/08:30am 24.0 22.9 17.3 66 4.2 ENE 19 24 10 13 1019.5 1019.5 0.0
09/08:00am 23.4 23.4 17.2 68 3.8 ENE 13 19 7 10 1019.5 1019.5 0.0
09/07:30am 22.9 23.2 16.9 69 3.7 ENE 11 17 6 9 1019.4 1019.4 0.0
09/07:00am 22.1 22.0 17.0 73 3.1 ENE 13 19 7 10 1019.2 1019.2 0.0
09/06:30am 21.0 22.5 17.6 81 2.1 N 6 13 3 7 1018.9 1018.9 0.0
09/06:00am 19.9 22.7 17.9 88 1.2 CALM 0 0 0 0 1018.9 1018.9 0.0
09/05:30am 19.6 22.2 17.6 88 1.2 CALM 0 0 0 0 1018.8 1018.8 0.0
09/05:00am 19.6 22.2 17.6 88 1.2 CALM 0 0 0 0 1018.7 1018.7 0.0
09/04:30am 19.7 22.3 17.5 87 1.3 CALM 0 0 0 0 1018.7 1018.7 0.0
09/04:00am 19.7 21.8 17.1 85 1.6 W 2 6 1 3 1018.8 1018.8 0.0
09/03:30am 19.4 20.5 17.0 86 1.5 W 7 9 4 5 1019.0 1019.0 0.0
09/03:00am 19.9 21.7 17.3 85 1.6 S 4 7 2 4 1019.1 1019.1 0.0
09/02:30am 20.8 21.6 16.4 76 2.7 E 7 9 4 5 1019.2 1019.2 0.0
09/02:00am 20.5 21.0 16.5 78 2.4 ESE 9 13 5 7 1019.4 1019.4 0.0
09/01:30am 19.9 22.2 16.7 82 1.9 CALM 0 0 0 0 1020.1 1020.1 0.0
09/01:00am 20.7 21.5 16.3 76 2.6 ESE 7 9 4 5 1020.6 1020.6 0.0
09/12:30am 20.9 21.8 16.1 74 2.9 E 6 9 3 5 1020.9 1020.9 0.0
09/12:00am 21.3 21.6 16.0 72 3.2 E 9 11 5 6 1021.4 1021.4 0.0
 
Date/Time
EDT
Temp
°C
App
Temp
°C
Dew
Point
°C
Rel
Hum
%
Delta-T
°C
Wind Press
QNH
hPa
Press
MSL
hPa
Rain since
9am
mm
Dir  Spd
km/h
Gust
km/h
Spd
kts
Gust
kts
08/11:30pm 21.4 21.7 16.1 72 3.2 E 9 15 5 8 1021.6 1021.6 0.0
08/11:00pm 21.7 21.2 16.0 70 3.4 E 13 17 7 9 1021.6 1021.6 0.0
08/10:30pm 21.5 21.9 16.2 72 3.2 E 9 13 5 7 1021.9 1021.9 0.0
08/10:00pm 21.4 21.3 15.9 71 3.3 E 11 15 6 8 1021.8 1021.8 0.0
08/09:30pm 21.5 21.8 16.0 71 3.3 E 9 13 5 7 1021.7 1021.7 0.0
08/09:00pm 21.7 21.5 15.8 69 3.5 E 11 17 6 9 1021.6 1021.6 0.0
08/08:30pm 21.6 22.0 16.3 72 3.2 E 9 15 5 8 1021.4 1021.4 0.0
08/08:00pm 21.6 21.8 15.7 69 3.5 E 9 13 5 7 1021.2 1021.2 0.0
08/07:30pm 21.9 21.1 16.0 69 3.6 E 15 20 8 11 1021.1 1021.1 0.0
08/07:00pm 22.2 21.7 15.8 67 3.8 E 13 17 7 9 1020.8 1020.8 0.0
08/06:30pm 22.5 21.9 15.6 65 4.1 E 13 20 7 11 1020.6 1020.6 0.0
08/06:00pm 22.7 20.8 15.3 63 4.4 ENE 19 24 10 13 1020.3 1020.3 0.0
08/05:30pm 24.1 23.1 16.6 63 4.6 E 17 26 9 14 1020.0 1020.0 0.0
08/05:00pm 23.0 21.8 16.1 65 4.2 E 17 24 9 13 1020.0 1020.0 0.0
08/04:30pm 22.9 21.5 15.5 63 4.4 ENE 17 22 9 12 1020.0 1020.0 0.0
08/04:00pm 23.1 21.8 14.9 60 4.9 ENE 15 20 8 11 1020.1 1020.1 0.0
08/03:30pm 23.2 21.2 15.0 60 4.9 E 19 24 10 13 1020.2 1020.2 0.0
08/03:00pm 23.4 21.2 14.9 59 5.0 ENE 20 30 11 16 1020.5 1020.5 0.0
08/02:30pm 23.1 20.4 14.7 59 5.0 ENE 22 32 12 17 1020.6 1020.6 0.0
08/02:00pm 23.8 21.8 15.6 60 4.9 E 20 28 11 15 1020.8 1020.8 0.0
08/01:30pm 24.1 21.3 15.3 58 5.3 ENE 24 32 13 17 1021.1 1021.1 0.0
08/01:00pm 25.7 23.1 16.0 55 5.9 E 24 35 13 19 1021.4 1021.4 0.0
08/12:30pm 24.3 23.0 17.3 65 4.3 E 20 30 11 16 1021.6 1021.6 0.0
08/12:00pm 24.2 21.7 16.2 61 4.9 E 24 33 13 18 1021.8 1021.8 0.0
08/11:30am 24.9 23.0 16.6 60 5.1 E 22 30 12 16 1021.8 1021.8 0.0
08/11:00am 23.6 20.9 16.6 65 4.3 E 26 33 14 18 1022.1 1022.1 0.0
08/10:30am 24.6 22.3 15.8 58 5.3 E 22 32 12 17 1022.0 1022.0 0.0
08/10:00am 24.2 22.1 15.1 56 5.4 E 20 28 11 15 1022.0 1022.0 0.0
08/09:30am 23.6 21.6 14.9 58 5.2 E 19 30 10 16 1022.1 1022.1 0.0
08/09:00am 22.9 20.6 14.7 60 4.8 E 20 28 11 15 1022.2 1022.2 0.0
08/08:30am 22.8 21.3 15.4 63 4.4 E 17 24 9 13 1022.1 1022.1 0.0
08/08:00am 22.5 20.7 15.4 64 4.2 E 19 26 10 14 1021.9 1021.9 0.0
08/07:30am 22.0 20.7 15.8 68 3.7 E 17 22 9 12 1021.7 1021.7 0.0
08/07:00am 21.8 20.2 14.9 65 4.1 E 17 28 9 15 1021.3 1021.3 0.0
08/06:30am 21.3 20.5 15.2 68 3.6 ESE 13 20 7 11 1020.9 1020.9 0.0
08/06:00am 20.9 20.1 15.0 69 3.5 E 13 19 7 10 1020.9 1020.9 0.0
08/05:30am 20.5 19.8 14.4 68 3.6 E 11 17 6 9 1020.7 1020.7 0.0
08/05:00am 20.4 19.8 14.5 69 3.4 E 11 17 6 9 1020.7 1020.7 0.0
08/04:30am 20.1 19.2 13.6 66 3.7 E 11 13 6 7 1020.6 1020.6 0.0
08/04:00am 19.9 19.0 13.6 67 3.6 ESE 11 17 6 9 1020.7 1020.7 0.0
08/03:30am 20.0 19.3 14.4 70 3.3 E 11 13 6 7 1020.7 1020.7 0.0
08/03:00am 20.4 18.8 13.8 66 3.8 ESE 15 20 8 11 1021.0 1021.0 0.0
08/02:30am 20.8 18.7 14.7 68 3.6 ESE 19 28 10 15 1021.3 1021.3 0.0
08/02:00am 21.0 18.9 15.3 70 3.4 ESE 20 28 11 15 1021.3 1021.3 0.0
08/01:30am 20.8 19.0 15.4 71 3.2 ESE 19 28 10 15 1021.6 1021.6 0.0
08/01:00am 20.6 19.1 15.4 72 3.1 ESE 17 28 9 15 1022.0 1022.0 0.0
08/12:30am 20.8 18.8 15.6 72 3.1 E 20 32 11 17 1022.2 1022.2 0.0
08/12:00am 20.9 18.9 15.0 69 3.5 E 19 30 10 16 1022.6 1022.6 0.0
 
Date/Time
EDT
Temp
°C
App
Temp
°C
Dew
Point
°C
Rel
Hum
%
Delta-T
°C
Wind Press
QNH
hPa
Press
MSL
hPa
Rain since
9am
mm
Dir  Spd
km/h
Gust
km/h
Spd
kts
Gust
kts
07/11:30pm 21.2 19.4 15.5 70 3.4 E 19 28 10 15 1022.8 1022.8 0.0
07/11:00pm 21.1 20.0 16.3 74 2.9 ESE 17 24 9 13 1022.9 1022.9 0.0
07/10:30pm 20.7 19.4 15.7 73 3.0 E 17 24 9 13 1023.1 1023.1 0.0

Other Formats:

Comma delimited format used in spreadsheet applications
http://www.bom.gov.au/fwo/IDN60801/IDN60801.94596.axf

JavaScript Object Notation format (JSON) in row-major order
http://www.bom.gov.au/fwo/IDN60801/IDN60801.94596.json